sensor_id;sensor_type;location;lat;lon;timestamp;pressure;altitude;pressure_sealevel;temperature;humidity
46710;BME280;32442;51.514;-0.178;2022-12-18T00:02:12;102014.28;;;16.27;34.83
46710;BME280;32442;51.514;-0.178;2022-12-18T00:04:39;102016.50;;;16.25;35.07
46710;BME280;32442;51.514;-0.178;2022-12-18T00:07:06;102022.56;;;16.22;35.00
46710;BME280;32442;51.514;-0.178;2022-12-18T00:09:32;102022.84;;;16.21;35.29
46710;BME280;32442;51.514;-0.178;2022-12-18T00:12:06;102009.38;;;16.18;35.33
46710;BME280;32442;51.514;-0.178;2022-12-18T00:14:41;102009.91;;;16.15;35.03
46710;BME280;32442;51.514;-0.178;2022-12-18T00:17:08;102012.09;;;16.13;35.10
46710;BME280;32442;51.514;-0.178;2022-12-18T00:19:35;102003.16;;;16.11;35.05
46710;BME280;32442;51.514;-0.178;2022-12-18T00:22:02;101991.41;;;16.09;35.38
46710;BME280;32442;51.514;-0.178;2022-12-18T00:24:29;101986.34;;;16.06;35.25
46710;BME280;32442;51.514;-0.178;2022-12-18T00:26:56;101985.72;;;16.03;35.49
46710;BME280;32442;51.514;-0.178;2022-12-18T00:29:23;101991.56;;;16.02;35.18
46710;BME280;32442;51.514;-0.178;2022-12-18T00:31:49;101986.25;;;16.00;35.23
46710;BME280;32442;51.514;-0.178;2022-12-18T00:34:16;101980.66;;;16.00;35.28
46710;BME280;32442;51.514;-0.178;2022-12-18T00:36:43;101979.34;;;16.03;35.25
46710;BME280;32442;51.514;-0.178;2022-12-18T00:39:10;101983.78;;;16.04;35.44
46710;BME280;32442;51.514;-0.178;2022-12-18T00:41:37;101985.25;;;16.07;35.19
46710;BME280;32442;51.514;-0.178;2022-12-18T00:44:09;101978.91;;;16.11;35.30
46710;BME280;32442;51.514;-0.178;2022-12-18T00:46:36;101978.16;;;16.16;35.54
46710;BME280;32442;51.514;-0.178;2022-12-18T00:49:03;101976.28;;;16.21;35.43
46710;BME280;32442;51.514;-0.178;2022-12-18T00:51:30;101985.56;;;16.27;35.59
46710;BME280;32442;51.514;-0.178;2022-12-18T00:53:57;101981.16;;;16.31;35.23
46710;BME280;32442;51.514;-0.178;2022-12-18T00:56:24;101981.53;;;16.34;35.43
46710;BME280;32442;51.514;-0.178;2022-12-18T00:58:51;101977.38;;;16.37;35.38
46710;BME280;32442;51.514;-0.178;2022-12-18T01:01:18;101973.81;;;16.41;35.58
46710;BME280;32442;51.514;-0.178;2022-12-18T01:03:45;101980.00;;;16.43;35.30
46710;BME280;32442;51.514;-0.178;2022-12-18T01:06:13;101982.25;;;16.46;35.07
46710;BME280;32442;51.514;-0.178;2022-12-18T01:08:43;101973.38;;;16.50;35.33
46710;BME280;32442;51.514;-0.178;2022-12-18T01:11:11;101968.63;;;16.50;35.25
46710;BME280;32442;51.514;-0.178;2022-12-18T01:13:38;101970.09;;;16.53;35.23
46710;BME280;32442;51.514;-0.178;2022-12-18T01:16:07;101967.03;;;16.54;35.09
46710;BME280;32442;51.514;-0.178;2022-12-18T01:18:34;101962.88;;;16.57;35.14
46710;BME280;32442;51.514;-0.178;2022-12-18T01:21:05;101968.22;;;16.58;35.18
46710;BME280;32442;51.514;-0.178;2022-12-18T01:23:32;101956.81;;;16.60;35.11
46710;BME280;32442;51.514;-0.178;2022-12-18T01:26:03;101952.94;;;16.61;34.82
46710;BME280;32442;51.514;-0.178;2022-12-18T01:28:30;101943.47;;;16.62;34.87
46710;BME280;32442;51.514;-0.178;2022-12-18T01:30:57;101939.56;;;16.63;35.03
46710;BME280;32442;51.514;-0.178;2022-12-18T01:33:24;101943.78;;;16.65;34.88
46710;BME280;32442;51.514;-0.178;2022-12-18T01:35:50;101937.38;;;16.65;34.95
46710;BME280;32442;51.514;-0.178;2022-12-18T01:38:17;101935.66;;;16.64;35.15
46710;BME280;32442;51.514;-0.178;2022-12-18T01:40:44;101929.25;;;16.63;34.88
46710;BME280;32442;51.514;-0.178;2022-12-18T01:43:11;101922.56;;;16.64;34.98
46710;BME280;32442;51.514;-0.178;2022-12-18T01:45:38;101918.06;;;16.63;34.83
46710;BME280;32442;51.514;-0.178;2022-12-18T01:48:05;101912.50;;;16.63;34.95
46710;BME280;32442;51.514;-0.178;2022-12-18T01:50:36;101908.84;;;16.63;34.98
46710;BME280;32442;51.514;-0.178;2022-12-18T01:55:37;101908.03;;;16.62;34.81
46710;BME280;32442;51.514;-0.178;2022-12-18T01:58:07;101907.19;;;16.62;34.71
46710;BME280;32442;51.514;-0.178;2022-12-18T02:00:34;101910.22;;;16.60;34.77
46710;BME280;32442;51.514;-0.178;2022-12-18T02:03:01;101916.06;;;16.59;34.79
46710;BME280;32442;51.514;-0.178;2022-12-18T02:10:31;101920.44;;;16.55;35.07
46710;BME280;32442;51.514;-0.178;2022-12-18T02:15:36;101925.69;;;16.51;34.86
46710;BME280;32442;51.514;-0.178;2022-12-18T02:18:08;101930.44;;;16.51;34.96
46710;BME280;32442;51.514;-0.178;2022-12-18T02:28:09;101938.56;;;16.52;34.88
46710;BME280;32442;51.514;-0.178;2022-12-18T02:30:36;101943.59;;;16.55;34.87
46710;BME280;32442;51.514;-0.178;2022-12-18T02:33:06;101941.16;;;16.59;35.05
46710;BME280;32442;51.514;-0.178;2022-12-18T02:35:35;101942.63;;;16.61;34.99
46710;BME280;32442;51.514;-0.178;2022-12-18T02:38:03;101939.31;;;16.64;34.91
46710;BME280;32442;51.514;-0.178;2022-12-18T02:40:31;101951.06;;;16.66;34.78
46710;BME280;32442;51.514;-0.178;2022-12-18T02:45:28;101968.44;;;16.73;34.82
46710;BME280;32442;51.514;-0.178;2022-12-18T02:47:55;101962.63;;;16.75;34.96
46710;BME280;32442;51.514;-0.178;2022-12-18T02:50:26;101960.41;;;16.77;35.16
46710;BME280;32442;51.514;-0.178;2022-12-18T02:57:56;101968.06;;;16.86;34.71
46710;BME280;32442;51.514;-0.178;2022-12-18T03:05:28;101955.88;;;16.93;34.82
46710;BME280;32442;51.514;-0.178;2022-12-18T03:08:00;101955.63;;;16.94;34.78
46710;BME280;32442;51.514;-0.178;2022-12-18T03:10:29;101948.91;;;16.95;34.51
46710;BME280;32442;51.514;-0.178;2022-12-18T03:13:00;101937.50;;;16.97;34.57
46710;BME280;32442;51.514;-0.178;2022-12-18T03:15:31;101927.75;;;16.99;34.57
46710;BME280;32442;51.514;-0.178;2022-12-18T03:20:31;101925.81;;;17.00;34.34
46710;BME280;32442;51.514;-0.178;2022-12-18T03:23:04;101921.91;;;17.01;34.49
46710;BME280;32442;51.514;-0.178;2022-12-18T03:25:34;101916.09;;;17.02;34.32
46710;BME280;32442;51.514;-0.178;2022-12-18T03:28:01;101922.50;;;17.03;34.72
46710;BME280;32442;51.514;-0.178;2022-12-18T03:30:29;101914.13;;;17.03;34.53
46710;BME280;32442;51.514;-0.178;2022-12-18T03:35:29;101900.19;;;17.03;34.59
46710;BME280;32442;51.514;-0.178;2022-12-18T03:37:57;101902.97;;;17.03;34.48
46710;BME280;32442;51.514;-0.178;2022-12-18T03:40:26;101901.03;;;17.03;34.56
46710;BME280;32442;51.514;-0.178;2022-12-18T03:42:57;101902.13;;;17.02;34.32
46710;BME280;32442;51.514;-0.178;2022-12-18T03:45:30;101892.91;;;17.02;34.50
46710;BME280;32442;51.514;-0.178;2022-12-18T03:55:28;101888.66;;;16.99;34.49
46710;BME280;32442;51.514;-0.178;2022-12-18T03:57:57;101895.09;;;17.00;34.28
46710;BME280;32442;51.514;-0.178;2022-12-18T04:00:25;101892.91;;;17.02;34.33
46710;BME280;32442;51.514;-0.178;2022-12-18T04:02:52;101881.47;;;17.03;34.57
46710;BME280;32442;51.514;-0.178;2022-12-18T04:05:20;101880.94;;;17.06;34.22
46710;BME280;32442;51.514;-0.178;2022-12-18T04:07:49;101879.00;;;17.07;34.33
46710;BME280;32442;51.514;-0.178;2022-12-18T04:10:17;101882.34;;;17.09;34.37
46710;BME280;32442;51.514;-0.178;2022-12-18T04:12:45;101881.84;;;17.12;34.61
46710;BME280;32442;51.514;-0.178;2022-12-18T04:15:12;101878.78;;;17.13;34.74
46710;BME280;32442;51.514;-0.178;2022-12-18T04:17:39;101878.28;;;17.16;34.39
46710;BME280;32442;51.514;-0.178;2022-12-18T04:20:10;101877.72;;;17.19;34.74
46710;BME280;32442;51.514;-0.178;2022-12-18T04:22:37;101880.28;;;17.21;34.78
46710;BME280;32442;51.514;-0.178;2022-12-18T04:25:04;101873.31;;;17.23;34.32
46710;BME280;32442;51.514;-0.178;2022-12-18T04:27:31;101866.38;;;17.26;34.54
46710;BME280;32442;51.514;-0.178;2022-12-18T04:29:58;101878.34;;;17.26;34.50
46710;BME280;32442;51.514;-0.178;2022-12-18T04:32:25;101867.78;;;17.28;34.60
46710;BME280;32442;51.514;-0.178;2022-12-18T04:34:52;101868.38;;;17.30;34.55
46710;BME280;32442;51.514;-0.178;2022-12-18T04:37:19;101856.06;;;17.31;34.23
46710;BME280;32442;51.514;-0.178;2022-12-18T04:39:45;101852.16;;;17.32;34.25
46710;BME280;32442;51.514;-0.178;2022-12-18T04:42:12;101858.34;;;17.34;34.14
46710;BME280;32442;51.514;-0.178;2022-12-18T04:44:39;101856.41;;;17.35;34.25
46710;BME280;32442;51.514;-0.178;2022-12-18T04:47:06;101853.59;;;17.35;34.45
46710;BME280;32442;51.514;-0.178;2022-12-18T04:49:34;101853.06;;;17.38;34.29
46710;BME280;32442;51.514;-0.178;2022-12-18T04:52:00;101848.31;;;17.39;34.25
46710;BME280;32442;51.514;-0.178;2022-12-18T04:54:27;101850.03;;;17.40;34.32
46710;BME280;32442;51.514;-0.178;2022-12-18T04:56:54;101844.44;;;17.40;34.11
46710;BME280;32442;51.514;-0.178;2022-12-18T04:59:21;101839.94;;;17.39;34.36
46710;BME280;32442;51.514;-0.178;2022-12-18T05:01:48;101825.13;;;17.38;33.99
46710;BME280;32442;51.514;-0.178;2022-12-18T05:04:15;101831.56;;;17.39;34.21
46710;BME280;32442;51.514;-0.178;2022-12-18T05:06:43;101811.41;;;17.37;33.95
46710;BME280;32442;51.514;-0.178;2022-12-18T05:09:10;101810.56;;;17.36;34.29
46710;BME280;32442;51.514;-0.178;2022-12-18T05:11:37;101800.00;;;17.38;34.14
46710;BME280;32442;51.514;-0.178;2022-12-18T05:14:03;101800.25;;;17.37;34.37
46710;BME280;32442;51.514;-0.178;2022-12-18T05:16:30;101797.47;;;17.37;33.84
46710;BME280;32442;51.514;-0.178;2022-12-18T05:18:58;101798.00;;;17.33;34.37
46710;BME280;32442;51.514;-0.178;2022-12-18T05:21:24;101785.38;;;17.31;34.39
46710;BME280;32442;51.514;-0.178;2022-12-18T05:23:51;101779.00;;;17.30;34.01
46710;BME280;32442;51.514;-0.178;2022-12-18T05:26:18;101775.63;;;17.28;33.99
46710;BME280;32442;51.514;-0.178;2022-12-18T05:28:46;101768.63;;;17.26;34.14
46710;BME280;32442;51.514;-0.178;2022-12-18T05:31:13;101768.03;;;17.24;34.46
46710;BME280;32442;51.514;-0.178;2022-12-18T05:33:40;101769.13;;;17.23;34.45
46710;BME280;32442;51.514;-0.178;2022-12-18T05:36:09;101773.31;;;17.20;34.46
46710;BME280;32442;51.514;-0.178;2022-12-18T05:38:36;101762.16;;;17.20;34.11
46710;BME280;32442;51.514;-0.178;2022-12-18T05:41:03;101756.28;;;17.22;34.13
46710;BME280;32442;51.514;-0.178;2022-12-18T05:43:31;101750.69;;;17.22;34.48
46710;BME280;32442;51.514;-0.178;2022-12-18T05:46:02;101746.53;;;17.24;34.16
46710;BME280;32442;51.514;-0.178;2022-12-18T05:48:29;101742.63;;;17.25;34.08
46710;BME280;32442;51.514;-0.178;2022-12-18T05:50:56;101747.94;;;17.27;34.17
46710;BME280;32442;51.514;-0.178;2022-12-18T05:53:29;101753.00;;;17.30;34.28
46710;BME280;32442;51.514;-0.178;2022-12-18T05:55:59;101758.31;;;17.31;34.67
46710;BME280;32442;51.514;-0.178;2022-12-18T05:58:25;101743.25;;;17.32;34.45
46710;BME280;32442;51.514;-0.178;2022-12-18T06:00:52;101734.31;;;17.35;34.33
46710;BME280;32442;51.514;-0.178;2022-12-18T06:03:19;101738.81;;;17.37;34.17
46710;BME280;32442;51.514;-0.178;2022-12-18T06:05:46;101738.28;;;17.40;34.24
46710;BME280;32442;51.514;-0.178;2022-12-18T06:08:13;101738.84;;;17.42;34.23
46710;BME280;32442;51.514;-0.178;2022-12-18T06:10:40;101723.78;;;17.43;34.67
46710;BME280;32442;51.514;-0.178;2022-12-18T06:13:07;101713.16;;;17.45;34.24
46710;BME280;32442;51.514;-0.178;2022-12-18T06:15:36;101709.25;;;17.46;34.55
46710;BME280;32442;51.514;-0.178;2022-12-18T06:18:03;101721.00;;;17.48;34.22
46710;BME280;32442;51.514;-0.178;2022-12-18T06:20:31;101721.56;;;17.50;34.49
46710;BME280;32442;51.514;-0.178;2022-12-18T06:22:59;101714.03;;;17.50;34.30
46710;BME280;32442;51.514;-0.178;2022-12-18T06:25:26;101702.59;;;17.52;34.29
46710;BME280;32442;51.514;-0.178;2022-12-18T06:27:53;101691.44;;;17.52;34.33
46710;BME280;32442;51.514;-0.178;2022-12-18T06:30:20;101681.94;;;17.53;34.31
46710;BME280;32442;51.514;-0.178;2022-12-18T06:32:47;101675.22;;;17.54;34.35
46710;BME280;32442;51.514;-0.178;2022-12-18T06:35:21;101672.44;;;17.54;34.36
46710;BME280;32442;51.514;-0.178;2022-12-18T06:37:48;101662.94;;;17.55;34.16
46710;BME280;32442;51.514;-0.178;2022-12-18T06:40:15;101662.94;;;17.55;34.32
46710;BME280;32442;51.514;-0.178;2022-12-18T06:42:42;101656.25;;;17.56;34.04
46710;BME280;32442;51.514;-0.178;2022-12-18T06:45:09;101654.56;;;17.55;34.38
46710;BME280;32442;51.514;-0.178;2022-12-18T06:47:37;101643.66;;;17.53;33.96
46710;BME280;32442;51.514;-0.178;2022-12-18T06:50:05;101639.75;;;17.54;34.05
46710;BME280;32442;51.514;-0.178;2022-12-18T06:52:32;101653.16;;;17.52;34.43
46710;BME280;32442;51.514;-0.178;2022-12-18T06:54:59;101663.50;;;17.52;33.90
46710;BME280;32442;51.514;-0.178;2022-12-18T06:57:26;101668.50;;;17.50;34.24
46710;BME280;32442;51.514;-0.178;2022-12-18T06:59:53;101666.53;;;17.50;34.24
46710;BME280;32442;51.514;-0.178;2022-12-18T07:02:19;101655.06;;;17.47;34.26
46710;BME280;32442;51.514;-0.178;2022-12-18T07:04:47;101653.13;;;17.47;34.25
46710;BME280;32442;51.514;-0.178;2022-12-18T07:07:13;101655.34;;;17.45;34.16
46710;BME280;32442;51.514;-0.178;2022-12-18T07:09:40;101647.25;;;17.44;34.33
46710;BME280;32442;51.514;-0.178;2022-12-18T07:12:07;101647.75;;;17.41;34.35
46710;BME280;32442;51.514;-0.178;2022-12-18T07:14:34;101639.69;;;17.39;34.21
46710;BME280;32442;51.514;-0.178;2022-12-18T07:17:01;101636.03;;;17.39;34.19
46710;BME280;32442;51.514;-0.178;2022-12-18T07:19:29;101627.38;;;17.35;34.52
46710;BME280;32442;51.514;-0.178;2022-12-18T07:21:56;101636.00;;;17.33;34.40
46710;BME280;32442;51.514;-0.178;2022-12-18T07:24:23;101632.63;;;17.31;34.48
46710;BME280;32442;51.514;-0.178;2022-12-18T07:26:49;101637.38;;;17.31;34.12
46710;BME280;32442;51.514;-0.178;2022-12-18T07:29:16;101634.28;;;17.27;34.54
46710;BME280;32442;51.514;-0.178;2022-12-18T07:31:43;101632.59;;;17.26;34.47
46710;BME280;32442;51.514;-0.178;2022-12-18T07:34:11;101621.97;;;17.23;34.27
46710;BME280;32442;51.514;-0.178;2022-12-18T07:36:38;101624.22;;;17.21;34.46
46710;BME280;32442;51.514;-0.178;2022-12-18T07:39:05;101619.72;;;17.20;34.60
46710;BME280;32442;51.514;-0.178;2022-12-18T07:41:32;101616.66;;;17.17;34.40
46710;BME280;32442;51.514;-0.178;2022-12-18T07:43:58;101620.53;;;17.16;34.58
46710;BME280;32442;51.514;-0.178;2022-12-18T07:46:25;101606.28;;;17.12;34.23
46710;BME280;32442;51.514;-0.178;2022-12-18T07:48:52;101605.69;;;17.10;34.61
46710;BME280;32442;51.514;-0.178;2022-12-18T07:51:19;101605.97;;;17.09;34.40
46710;BME280;32442;51.514;-0.178;2022-12-18T07:53:46;101594.50;;;17.05;34.55
46710;BME280;32442;51.514;-0.178;2022-12-18T07:56:17;101590.31;;;17.03;34.63
46710;BME280;32442;51.514;-0.178;2022-12-18T07:58:53;101581.59;;;16.99;34.56
46710;BME280;32442;51.514;-0.178;2022-12-18T08:01:20;101577.41;;;16.97;34.45
46710;BME280;32442;51.514;-0.178;2022-12-18T08:03:47;101573.22;;;16.94;34.28
46710;BME280;32442;51.514;-0.178;2022-12-18T08:06:17;101581.00;;;16.92;34.40
46710;BME280;32442;51.514;-0.178;2022-12-18T08:08:44;101578.47;;;16.90;34.77
46710;BME280;32442;51.514;-0.178;2022-12-18T08:11:10;101593.81;;;16.88;34.60
46710;BME280;32442;51.514;-0.178;2022-12-18T08:13:37;101586.81;;;16.85;34.75
46710;BME280;32442;51.514;-0.178;2022-12-18T08:16:05;101590.72;;;16.84;34.53
46710;BME280;32442;51.514;-0.178;2022-12-18T08:18:33;101591.25;;;16.81;34.76
46710;BME280;32442;51.514;-0.178;2022-12-18T08:23:30;101610.47;;;16.78;34.32
46710;BME280;32442;51.514;-0.178;2022-12-18T08:25:58;101609.09;;;16.75;34.82
46710;BME280;32442;51.514;-0.178;2022-12-18T08:28:24;101600.38;;;16.72;34.72
46710;BME280;32442;51.514;-0.178;2022-12-18T08:30:52;101597.03;;;16.70;34.72
46710;BME280;32442;51.514;-0.178;2022-12-18T08:33:19;101599.22;;;16.68;34.71
46710;BME280;32442;51.514;-0.178;2022-12-18T08:35:46;101602.31;;;16.66;34.54
46710;BME280;32442;51.514;-0.178;2022-12-18T08:38:12;101601.72;;;16.64;34.79
46710;BME280;32442;51.514;-0.178;2022-12-18T08:40:39;101605.06;;;16.61;34.50
46710;BME280;32442;51.514;-0.178;2022-12-18T08:43:07;101609.19;;;16.59;34.71
46710;BME280;32442;51.514;-0.178;2022-12-18T08:45:38;101601.97;;;16.58;34.83
46710;BME280;32442;51.514;-0.178;2022-12-18T08:48:05;101585.69;;;16.55;34.58
46710;BME280;32442;51.514;-0.178;2022-12-18T08:50:32;101590.72;;;16.53;34.82
46710;BME280;32442;51.514;-0.178;2022-12-18T08:52:59;101600.44;;;16.50;34.92
46710;BME280;32442;51.514;-0.178;2022-12-18T08:55:26;101601.84;;;16.48;34.75
46710;BME280;32442;51.514;-0.178;2022-12-18T08:57:53;101600.41;;;16.45;35.04
46710;BME280;32442;51.514;-0.178;2022-12-18T09:00:20;101595.09;;;16.43;34.87
46710;BME280;32442;51.514;-0.178;2022-12-18T09:02:47;101592.81;;;16.40;34.81
46710;BME280;32442;51.514;-0.178;2022-12-18T09:05:15;101594.22;;;16.38;35.17
46710;BME280;32442;51.514;-0.178;2022-12-18T09:07:41;101592.78;;;16.35;34.91
46710;BME280;32442;51.514;-0.178;2022-12-18T09:10:08;101591.38;;;16.33;35.08
46710;BME280;32442;51.514;-0.178;2022-12-18T09:12:35;101602.78;;;16.31;35.17
46710;BME280;32442;51.514;-0.178;2022-12-18T09:15:02;101594.09;;;16.28;35.03
46710;BME280;32442;51.514;-0.178;2022-12-18T09:17:29;101598.00;;;16.27;35.29
46710;BME280;32442;51.514;-0.178;2022-12-18T09:19:56;101604.09;;;16.24;34.90
46710;BME280;32442;51.514;-0.178;2022-12-18T09:22:23;101607.44;;;16.21;34.93
46710;BME280;32442;51.514;-0.178;2022-12-18T09:24:50;101584.78;;;16.17;35.24
46710;BME280;32442;51.514;-0.178;2022-12-18T09:27:17;101589.28;;;16.18;35.21
46710;BME280;32442;51.514;-0.178;2022-12-18T09:29:44;101578.41;;;16.17;35.41
46710;BME280;32442;51.514;-0.178;2022-12-18T09:32:11;101588.16;;;16.19;35.47
46710;BME280;32442;51.514;-0.178;2022-12-18T09:34:45;101598.22;;;16.20;35.02
46710;BME280;32442;51.514;-0.178;2022-12-18T09:37:12;101610.78;;;16.23;35.24
46710;BME280;32442;51.514;-0.178;2022-12-18T09:39:39;101616.66;;;16.26;35.44
46710;BME280;32442;51.514;-0.178;2022-12-18T09:42:06;101619.78;;;16.30;35.19
46710;BME280;32442;51.514;-0.178;2022-12-18T09:52:11;101594.31;;;16.48;35.63
46710;BME280;32442;51.514;-0.178;2022-12-18T09:54:40;101603.81;;;16.52;35.60
46710;BME280;32442;51.514;-0.178;2022-12-18T09:59:38;101611.72;;;16.60;35.32
46710;BME280;32442;51.514;-0.178;2022-12-18T10:04:36;101607.31;;;16.64;35.33
46710;BME280;32442;51.514;-0.178;2022-12-18T10:07:05;101608.72;;;16.67;35.29
46710;BME280;32442;51.514;-0.178;2022-12-18T10:09:37;101609.88;;;16.71;35.20
46710;BME280;32442;51.514;-0.178;2022-12-18T10:12:13;101612.97;;;16.74;35.06
46710;BME280;32442;51.514;-0.178;2022-12-18T10:22:19;101598.78;;;16.81;34.97
46710;BME280;32442;51.514;-0.178;2022-12-18T10:24:53;101594.63;;;16.83;34.99
46710;BME280;32442;51.514;-0.178;2022-12-18T10:27:24;101586.00;;;16.85;35.15
46710;BME280;32442;51.514;-0.178;2022-12-18T10:29:52;101593.25;;;16.86;34.97
46710;BME280;32442;51.514;-0.178;2022-12-18T10:32:20;101597.72;;;16.87;34.81
46710;BME280;32442;51.514;-0.178;2022-12-18T10:34:49;101594.66;;;16.88;35.21
46710;BME280;32442;51.514;-0.178;2022-12-18T10:37:24;101578.78;;;16.89;34.86
46710;BME280;32442;51.514;-0.178;2022-12-18T10:42:21;101563.97;;;16.88;35.00
46710;BME280;32442;51.514;-0.178;2022-12-18T10:44:49;101555.00;;;16.86;34.78
46710;BME280;32442;51.514;-0.178;2022-12-18T10:47:27;101555.31;;;16.85;34.88
46710;BME280;32442;51.514;-0.178;2022-12-18T10:49:54;101553.31;;;16.85;34.84
46710;BME280;32442;51.514;-0.178;2022-12-18T10:52:22;101540.50;;;16.84;35.19
46710;BME280;32442;51.514;-0.178;2022-12-18T10:59:51;101513.44;;;16.85;35.03
46710;BME280;32442;51.514;-0.178;2022-12-18T11:02:25;101514.00;;;16.87;35.05
46710;BME280;32442;51.514;-0.178;2022-12-18T11:04:54;101494.75;;;16.90;35.34
46710;BME280;32442;51.514;-0.178;2022-12-18T11:07:20;101494.22;;;16.94;35.00
46710;BME280;32442;51.514;-0.178;2022-12-18T11:09:59;101485.56;;;16.95;35.14
46710;BME280;32442;51.514;-0.178;2022-12-18T11:12:26;101474.72;;;16.99;35.00
46710;BME280;32442;51.514;-0.178;2022-12-18T11:14:55;101481.69;;;17.01;35.30
46710;BME280;32442;51.514;-0.178;2022-12-18T11:17:27;101480.59;;;17.02;35.25
46710;BME280;32442;51.514;-0.178;2022-12-18T11:20:01;101483.41;;;17.07;35.47
46710;BME280;32442;51.514;-0.178;2022-12-18T11:22:29;101475.59;;;17.09;35.33
46710;BME280;32442;51.514;-0.178;2022-12-18T11:32:43;101442.72;;;17.21;35.26
46710;BME280;32442;51.514;-0.178;2022-12-18T11:37:41;101441.88;;;17.26;35.05
46710;BME280;32442;51.514;-0.178;2022-12-18T11:42:44;101426.25;;;17.30;35.18
46710;BME280;32442;51.514;-0.178;2022-12-18T11:50:12;101435.47;;;17.35;34.86
46710;BME280;32442;51.514;-0.178;2022-12-18T11:52:41;101414.81;;;17.37;34.82
46710;BME280;32442;51.514;-0.178;2022-12-18T11:57:41;101417.59;;;17.37;34.98
46710;BME280;32442;51.514;-0.178;2022-12-18T12:17:45;101371.53;;;17.34;34.96
46710;BME280;32442;51.514;-0.178;2022-12-18T12:20:18;101361.47;;;17.33;34.93
46710;BME280;32442;51.514;-0.178;2022-12-18T12:40:14;101313.44;;;17.21;34.92
46710;BME280;32442;51.514;-0.178;2022-12-18T12:48:14;101324.59;;;17.16;35.30
46710;BME280;32442;51.514;-0.178;2022-12-18T12:50:42;101323.19;;;17.18;35.03
46710;BME280;32442;51.514;-0.178;2022-12-18T12:53:15;101313.13;;;17.17;35.52
46710;BME280;32442;51.514;-0.178;2022-12-18T12:55:46;101309.22;;;17.18;35.34
46710;BME280;32442;51.514;-0.178;2022-12-18T13:00:44;101294.16;;;17.24;35.31
46710;BME280;32442;51.514;-0.178;2022-12-18T13:03:17;101299.19;;;17.27;35.51
46710;BME280;32442;51.514;-0.178;2022-12-18T13:10:47;101271.00;;;17.34;35.34
46710;BME280;32442;51.514;-0.178;2022-12-18T13:13:15;101271.25;;;17.38;35.87
46710;BME280;32442;51.514;-0.178;2022-12-18T13:16:03;101271.84;;;17.40;35.47
46710;BME280;32442;51.514;-0.178;2022-12-18T13:18:31;101263.72;;;17.43;35.82
46710;BME280;32442;51.514;-0.178;2022-12-18T13:26:27;101237.44;;;17.49;35.77
46710;BME280;32442;51.514;-0.178;2022-12-18T13:28:55;101239.97;;;17.51;35.65
46710;BME280;32442;51.514;-0.178;2022-12-18T13:33:53;101233.00;;;17.53;35.74
46710;BME280;32442;51.514;-0.178;2022-12-18T13:36:53;101216.78;;;17.55;35.40
46710;BME280;32442;51.514;-0.178;2022-12-18T13:39:21;101211.19;;;17.55;35.53
46710;BME280;32442;51.514;-0.178;2022-12-18T13:47:24;101199.47;;;17.58;35.49
46710;BME280;32442;51.514;-0.178;2022-12-18T13:49:51;101194.72;;;17.59;35.24
46710;BME280;32442;51.514;-0.178;2022-12-18T13:52:20;101191.94;;;17.59;35.22
46710;BME280;32442;51.514;-0.178;2022-12-18T13:54:50;101182.72;;;17.58;35.25
46710;BME280;32442;51.514;-0.178;2022-12-18T13:59:49;101170.97;;;17.56;35.33
46710;BME280;32442;51.514;-0.178;2022-12-18T14:02:17;101169.28;;;17.55;35.31
46710;BME280;32442;51.514;-0.178;2022-12-18T14:04:45;101177.66;;;17.55;35.30
46710;BME280;32442;51.514;-0.178;2022-12-18T14:07:14;101171.81;;;17.52;35.46
46710;BME280;32442;51.514;-0.178;2022-12-18T14:09:44;101174.88;;;17.50;35.64
46710;BME280;32442;51.514;-0.178;2022-12-18T14:14:46;101169.28;;;17.45;35.51
46710;BME280;32442;51.514;-0.178;2022-12-18T14:17:17;101167.66;;;17.44;35.64
46710;BME280;32442;51.514;-0.178;2022-12-18T14:19:46;101156.75;;;17.43;35.83
46710;BME280;32442;51.514;-0.178;2022-12-18T14:22:15;101164.28;;;17.42;35.67
46710;BME280;32442;51.514;-0.178;2022-12-18T14:24:43;101160.13;;;17.40;35.40
46710;BME280;32442;51.514;-0.178;2022-12-18T14:27:12;101164.03;;;17.39;35.41
46710;BME280;32442;51.514;-0.178;2022-12-18T14:29:40;101163.44;;;17.37;35.72
46710;BME280;32442;51.514;-0.178;2022-12-18T14:32:10;101149.78;;;17.35;35.72
46710;BME280;32442;51.514;-0.178;2022-12-18T14:34:44;101148.13;;;17.34;35.78
46710;BME280;32442;51.514;-0.178;2022-12-18T14:37:12;101142.78;;;17.32;35.56
46710;BME280;32442;51.514;-0.178;2022-12-18T14:39:39;101131.09;;;17.30;35.72
46710;BME280;32442;51.514;-0.178;2022-12-18T14:42:09;101134.16;;;17.29;35.51
46710;BME280;32442;51.514;-0.178;2022-12-18T14:44:36;101133.59;;;17.27;35.54
46710;BME280;32442;51.514;-0.178;2022-12-18T14:47:23;101121.88;;;17.25;35.78
46710;BME280;32442;51.514;-0.178;2022-12-18T14:49:50;101132.47;;;17.23;35.55
46710;BME280;32442;51.514;-0.178;2022-12-18T14:54:52;101123.84;;;17.19;35.73
46710;BME280;32442;51.514;-0.178;2022-12-18T14:59:47;101124.94;;;17.13;35.91
46710;BME280;32442;51.514;-0.178;2022-12-18T15:04:44;101117.41;;;17.09;35.62
46710;BME280;32442;51.514;-0.178;2022-12-18T15:14:42;101103.50;;;16.99;36.24
46710;BME280;32442;51.514;-0.178;2022-12-18T15:19:39;101089.53;;;16.94;36.02
46710;BME280;32442;51.514;-0.178;2022-12-18T15:24:37;101097.63;;;16.90;36.06
46710;BME280;32442;51.514;-0.178;2022-12-18T15:27:05;101081.19;;;16.88;36.25
46710;BME280;32442;51.514;-0.178;2022-12-18T15:29:59;101080.34;;;16.88;36.02
46710;BME280;32442;51.514;-0.178;2022-12-18T15:32:26;101074.47;;;16.89;36.17
46710;BME280;32442;51.514;-0.178;2022-12-18T15:37:24;101061.63;;;16.94;36.51
46710;BME280;32442;51.514;-0.178;2022-12-18T15:39:51;101051.84;;;16.96;36.73
46710;BME280;32442;51.514;-0.178;2022-12-18T15:42:18;101034.53;;;16.99;36.74
46710;BME280;32442;51.514;-0.178;2022-12-18T15:44:48;101055.22;;;17.03;36.65
46710;BME280;32442;51.514;-0.178;2022-12-18T15:47:16;101034.25;;;17.06;36.64
46710;BME280;32442;51.514;-0.178;2022-12-18T15:49:43;101030.34;;;17.07;36.78